Hopewell, Ohio
Current Conditions -  °F | °C
As of 6:53 AM on Monday 24 Nov 2014 (Local Time) from KZZV Reporting Station
Overcast Overcast  
Wind Chill: 14°   Ceiling: 6500
Heat Index: 14°   Visibility: 10mi
Dew Point: 12°   Wind: 14mph
Humidity: 84%   Direction: 190°S
Pressure: 29.4"   Gusts: NA
Location:  39.95°N, 82.17°W
Report Text: KZZV 241153Z AUTO 19012KT 10SM OVC065 14/12 A2940 RMK AO2 SLP953 60004 70036 T01440117 10150 20133 50006
Loading
Personal Weather Stations






























Interactive Weather Map New forecast layout! Learn more

10-Day Weather Forecast

Advertisements
Track Severe Weather on mobile